Lake Cumberland Regional Airport Somerset US
ICAO: KSME
IATA: SME
Category: Medium
Scheduled Services: No

Elevation: 927 ft
TransAlt. 18000 ft.

Airport Communications:
AWOS 3:124.85
INDIANAPOLIS CNTR:121.325
LOUISVILLE RDO:122.55
CTAF/UNICOM:122.8

KSME Zoom In..

If you have problems with the map follow the link
https://www.worldairports.se/pages/airport.php?
ICAO=KSME

Runways:

(A) RW 05 length 5799 ft width 100 ft
ILS 109.30 / hdg 48

(B) RW 23 length 5799 ft width 100 ft
---- / hdg 228

Location; KSME
Day. 17 / Time. 21.35 Zulu
* Altimeter: 30.51
* Temperature: 02° c. 35.6°f.
* Wind from: 070° Speed 05 kn.
Dewpoint: -08° c.
Visibility: 10 Statute Miles.
Clouds: Scattered 11000 ft.

KSME 172135Z AUTO 07005KT 10SM SCT110 02/M08 A3051 RMK AO2


Wind From 070°
Speed 05 kn.

 
 
jpsmedia worldairports.se 2020   terms of use